Aviation Digital Data Service (ADDS)

Output produced by METARs form (2134 UTC 28 November 2014)
found at http://aviationweather.gov/adds/metars/
 
KSFO 281721Z 2818/2924 11005KT 1SM BR SCT001 SCT005 
     FM281830 11006KT 6SM BR SCT001 SCT005 
     FM290200 18011KT P6SM VCSH SCT050 BKN100 
     FM290500 18008G16KT 6SM -RA BR OVC030 
     FM291000 17006KT 3SM RA BR OVC015 
     FM291800 15010KT 6SM -SHRA BR BKN025